Time;durP1;ratioP1;P1;durP2;ratioP2;P2;SDS_P1;SDS_P2;PMS_P1;PMS_P2;Temp;Humidity;BMP_temperature;BMP_pressure;BME280_temperature;BME280_humidity;BME280_pressure;Samples;Min_cycle;Max_cycle;Signal;HPM_P1;HPM_P2
2023/08/16 00:01:46;;;;;;;;;5.00;4.00;;;;;;;;5059189;28;45218;-76
2023/08/16 00:04:11;;;;;;;;;6.33;5.00;;;;;;;;5062758;28;45519;-75
2023/08/16 00:06:40;;;;;;;;;4.00;4.00;;;;;;;;5061337;28;46268;-75
2023/08/16 00:09:05;;;;;;;;;2.33;2.33;;;;;;;;5062862;28;45347;-76
2023/08/16 00:11:31;;;;;;;;;4.00;4.00;;;;;;;;5062840;28;45307;-75
2023/08/16 00:13:56;;;;;;;;;4.00;4.00;;;;;;;;5062732;28;45395;-75
2023/08/16 00:16:21;;;;;;;;;4.33;4.33;;;;;;;;5044305;28;48160;-75
2023/08/16 00:18:46;;;;;;;;;5.00;5.00;;;;;;;;5062570;28;45354;-76
2023/08/16 00:21:11;;;;;;;;;4.00;4.00;;;;;;;;5061205;28;45253;-75
2023/08/16 00:23:37;;;;;;;;;3.33;3.33;;;;;;;;5062532;28;45154;-75
2023/08/16 00:26:02;;;;;;;;;6.00;6.00;;;;;;;;5062475;28;45280;-75
2023/08/16 00:28:27;;;;;;;;;6.00;6.00;;;;;;;;5061006;28;45516;-75
2023/08/16 00:30:55;;;;;;;;;4.33;4.00;;;;;;;;5040922;28;45427;-75
2023/08/16 00:33:21;;;;;;;;;7.67;5.00;;;;;;;;5040834;28;45966;-75
2023/08/16 00:35:46;;;;;;;;;3.00;3.00;;;;;;;;5040658;28;45392;-75
2023/08/16 00:38:11;;;;;;;;;4.67;4.67;;;;;;;;5040743;28;45214;-76
2023/08/16 00:40:36;;;;;;;;;9.00;6.33;;;;;;;;5045322;28;45386;-75
2023/08/16 00:43:03;;;;;;;;;3.67;3.67;;;;;;;;5062089;28;45288;-76
2023/08/16 00:45:28;;;;;;;;;5.00;4.33;;;;;;;;5061730;28;46844;-75
2023/08/16 00:47:54;;;;;;;;;5.00;5.00;;;;;;;;5062116;28;45246;-75
2023/08/16 00:50:21;;;;;;;;;4.50;4.50;;;;;;;;5062317;28;45434;-76
2023/08/16 00:52:47;;;;;;;;;5.33;5.33;;;;;;;;5061627;28;45438;-75
2023/08/16 00:55:12;;;;;;;;;4.00;4.00;;;;;;;;5060268;28;46877;-75
2023/08/16 00:57:37;;;;;;;;;4.00;4.00;;;;;;;;5061893;28;45268;-75
2023/08/16 01:00:04;;;;;;;;;4.00;4.00;;;;;;;;5060432;28;45399;-75
2023/08/16 01:02:30;;;;;;;;;4.67;4.33;;;;;;;;5061413;28;45268;-75
2023/08/16 01:04:55;;;;;;;;;5.67;5.67;;;;;;;;5061692;28;45393;-75
2023/08/16 01:07:20;;;;;;;;;6.33;5.00;;;;;;;;5060414;28;46295;-75
2023/08/16 01:09:46;;;;;;;;;8.33;8.33;;;;;;;;5062153;28;45207;-76
2023/08/16 01:12:20;;;;;;;;;4.00;4.00;;;;;;;;5060365;28;45984;-75
2023/08/16 01:14:53;;;;;;;;;4.00;4.00;;;;;;;;5059561;28;47977;-75
2023/08/16 01:17:20;;;;;;;;;4.00;4.00;;;;;;;;5061533;28;45313;-75
2023/08/16 01:19:45;;;;;;;;;4.00;4.00;;;;;;;;5060370;28;45296;-76
2023/08/16 01:22:26;;;;;;;;;5.67;5.67;;;;;;;;5043271;28;45556;-76
2023/08/16 01:24:57;;;;;;;;;5.00;3.67;;;;;;;;5061796;28;46392;-76
2023/08/16 01:27:23;;;;;;;;;4.00;4.00;;;;;;;;5060208;28;45673;-75
2023/08/16 01:29:49;;;;;;;;;4.67;4.67;;;;;;;;5074072;28;45223;-75
2023/08/16 01:32:15;;;;;;;;;6.00;4.00;;;;;;;;5081816;27;45307;-75
2023/08/16 01:34:41;;;;;;;;;4.00;4.00;;;;;;;;5081651;27;45448;-76
2023/08/16 01:37:06;;;;;;;;;4.00;4.00;;;;;;;;5081672;28;45309;-75
2023/08/16 01:39:31;;;;;;;;;3.00;3.00;;;;;;;;5082032;27;45416;-75
2023/08/16 01:41:58;;;;;;;;;4.00;4.00;;;;;;;;5097025;27;45397;-75
2023/08/16 01:44:24;;;;;;;;;4.00;4.00;;;;;;;;5101846;27;46398;-75
2023/08/16 01:46:50;;;;;;;;;5.00;5.00;;;;;;;;5083599;27;45369;-75
2023/08/16 01:49:16;;;;;;;;;6.00;5.00;;;;;;;;5102239;27;45362;-75
2023/08/16 01:51:41;;;;;;;;;4.67;4.67;;;;;;;;5101789;27;45269;-75
2023/08/16 01:54:06;;;;;;;;;5.33;4.67;;;;;;;;5083404;27;46584;-75
2023/08/16 01:56:31;;;;;;;;;6.00;6.00;;;;;;;;5101771;27;45338;-75
2023/08/16 01:58:57;;;;;;;;;8.00;6.00;;;;;;;;5102005;27;45309;-75
2023/08/16 02:01:22;;;;;;;;;5.00;5.00;;;;;;;;5082840;27;45297;-75
2023/08/16 02:03:47;;;;;;;;;7.67;6.33;;;;;;;;5083198;27;48342;-75
2023/08/16 02:06:13;;;;;;;;;3.67;3.67;;;;;;;;5101612;27;45235;-75
2023/08/16 02:08:38;;;;;;;;;5.67;5.00;;;;;;;;5101917;27;45363;-75
2023/08/16 02:11:03;;;;;;;;;5.00;5.00;;;;;;;;5101467;27;45305;-75
2023/08/16 02:13:28;;;;;;;;;5.00;5.00;;;;;;;;5101689;27;46769;-75
2023/08/16 02:16:00;;;;;;;;;4.00;4.00;;;;;;;;5101477;27;45275;-75
2023/08/16 02:18:26;;;;;;;;;3.00;3.00;;;;;;;;5101723;27;45259;-75
2023/08/16 02:20:52;;;;;;;;;4.00;3.00;;;;;;;;5082775;27;46605;-75
2023/08/16 02:23:17;;;;;;;;;3.67;3.67;;;;;;;;5101361;27;45412;-75
2023/08/16 02:25:43;;;;;;;;;4.33;3.67;;;;;;;;5082128;27;45305;-76
2023/08/16 02:28:08;;;;;;;;;5.00;5.00;;;;;;;;5082935;27;45325;-75
2023/08/16 02:30:33;;;;;;;;;5.67;4.67;;;;;;;;5063185;28;45542;-75
2023/08/16 02:32:58;;;;;;;;;6.00;6.00;;;;;;;;5080794;28;46073;-75
2023/08/16 02:35:24;;;;;;;;;5.00;5.00;;;;;;;;5062526;28;45371;-75
2023/08/16 02:37:49;;;;;;;;;4.00;4.00;;;;;;;;5080958;28;45347;-76
2023/08/16 02:40:14;;;;;;;;;5.00;5.00;;;;;;;;5062280;28;46355;-76
2023/08/16 02:42:40;;;;;;;;;3.67;3.67;;;;;;;;5080427;28;46565;-75
2023/08/16 02:45:05;;;;;;;;;6.33;5.33;;;;;;;;5080569;28;45292;-75
2023/08/16 02:47:30;;;;;;;;;4.00;4.00;;;;;;;;5080773;28;45299;-76
2023/08/16 02:49:56;;;;;;;;;6.00;6.00;;;;;;;;5080496;28;45279;-76
2023/08/16 02:52:21;;;;;;;;;4.00;4.00;;;;;;;;5061938;28;47952;-75
2023/08/16 02:54:46;;;;;;;;;5.67;5.67;;;;;;;;5080490;28;45250;-76
2023/08/16 02:57:13;;;;;;;;;4.67;4.67;;;;;;;;5062288;28;45362;-75
2023/08/16 02:59:42;;;;;;;;;5.67;5.33;;;;;;;;5080140;28;45165;-75
2023/08/16 03:02:07;;;;;;;;;5.00;5.00;;;;;;;;5080289;28;46015;-75
2023/08/16 03:04:33;;;;;;;;;3.00;3.00;;;;;;;;5080372;28;45389;-75
2023/08/16 03:06:58;;;;;;;;;4.67;4.67;;;;;;;;5080411;28;45273;-76
2023/08/16 03:09:23;;;;;;;;;4.67;4.67;;;;;;;;5062214;28;45342;-75
2023/08/16 03:11:49;;;;;;;;;3.67;3.67;;;;;;;;5061815;28;45941;-75
2023/08/16 03:14:14;;;;;;;;;5.00;5.00;;;;;;;;5062121;28;45355;-75
2023/08/16 03:16:40;;;;;;;;;7.00;5.00;;;;;;;;5080172;28;45245;-75
2023/08/16 03:19:05;;;;;;;;;5.00;5.00;;;;;;;;5061923;28;45992;-75
2023/08/16 03:21:33;;;;;;;;;5.67;5.00;;;;;;;;5061671;28;47150;-75
2023/08/16 03:23:58;;;;;;;;;6.00;4.00;;;;;;;;5080049;28;45300;-75
2023/08/16 03:26:23;;;;;;;;;5.00;5.00;;;;;;;;5062003;28;45335;-75
2023/08/16 03:28:49;;;;;;;;;6.00;6.00;;;;;;;;5084494;27;45347;-75
2023/08/16 03:31:14;;;;;;;;;4.00;4.00;;;;;;;;5081797;27;48154;-75
2023/08/16 03:33:39;;;;;;;;;4.00;4.00;;;;;;;;5100535;27;45233;-75
2023/08/16 03:36:04;;;;;;;;;4.33;4.33;;;;;;;;5081825;27;45324;-75
2023/08/16 03:38:30;;;;;;;;;7.67;7.67;;;;;;;;5081843;27;46014;-75
2023/08/16 03:40:55;;;;;;;;;6.00;6.00;;;;;;;;5099858;27;46654;-75
2023/08/16 03:43:20;;;;;;;;;5.33;5.33;;;;;;;;5081912;27;45473;-75
2023/08/16 03:45:47;;;;;;;;;6.33;5.00;;;;;;;;5100276;27;45317;-75
2023/08/16 03:48:13;;;;;;;;;4.67;4.67;;;;;;;;5100051;27;45409;-75
2023/08/16 03:50:38;;;;;;;;;7.33;7.33;;;;;;;;5081540;27;47202;-75
2023/08/16 03:53:03;;;;;;;;;5.00;4.00;;;;;;;;5081597;27;46025;-75
2023/08/16 03:55:28;;;;;;;;;5.00;5.00;;;;;;;;5100376;27;45279;-75
2023/08/16 03:57:53;;;;;;;;;5.00;5.00;;;;;;;;5099995;27;45613;-75
2023/08/16 04:00:19;;;;;;;;;5.00;5.00;;;;;;;;5081344;27;46019;-75
2023/08/16 04:02:44;;;;;;;;;5.67;5.67;;;;;;;;5081615;27;45284;-75
2023/08/16 04:05:11;;;;;;;;;6.00;6.00;;;;;;;;5100169;27;45407;-76
2023/08/16 04:07:36;;;;;;;;;5.00;5.00;;;;;;;;5099654;27;46122;-75
2023/08/16 04:10:02;;;;;;;;;7.00;7.00;;;;;;;;5081497;27;46105;-76
2023/08/16 04:12:27;;;;;;;;;6.00;6.00;;;;;;;;5099929;27;45273;-75
2023/08/16 04:14:52;;;;;;;;;5.00;5.00;;;;;;;;5099879;27;45478;-75
2023/08/16 04:17:17;;;;;;;;;6.00;6.00;;;;;;;;5099885;27;45346;-75
2023/08/16 04:19:42;;;;;;;;;7.00;6.67;;;;;;;;5099754;27;45398;-75
2023/08/16 04:22:08;;;;;;;;;6.33;6.33;;;;;;;;5099702;27;45390;-75
2023/08/16 04:24:33;;;;;;;;;7.67;6.00;;;;;;;;5081584;27;45295;-75
2023/08/16 04:26:58;;;;;;;;;5.00;5.00;;;;;;;;5099676;27;45342;-76
2023/08/16 04:29:24;;;;;;;;;6.33;6.33;;;;;;;;5071584;28;46171;-75
2023/08/16 04:31:49;;;;;;;;;7.00;6.00;;;;;;;;5061018;28;45335;-75
2023/08/16 04:34:15;;;;;;;;;4.67;4.67;;;;;;;;5079449;28;45347;-75
2023/08/16 04:36:40;;;;;;;;;5.67;4.33;;;;;;;;5060767;28;45551;-75
2023/08/16 04:39:05;;;;;;;;;5.00;5.00;;;;;;;;5079131;28;45244;-75
2023/08/16 04:41:30;;;;;;;;;4.00;4.00;;;;;;;;5060743;28;45423;-75
2023/08/16 04:43:55;;;;;;;;;5.00;5.00;;;;;;;;5079167;28;45667;-75
2023/08/16 04:46:20;;;;;;;;;6.00;6.00;;;;;;;;5060616;28;46100;-76
2023/08/16 04:48:46;;;;;;;;;5.00;5.00;;;;;;;;5080165;28;45524;-75
2023/08/16 04:51:11;;;;;;;;;6.00;6.00;;;;;;;;5064021;28;45332;-75
2023/08/16 04:53:36;;;;;;;;;4.33;4.33;;;;;;;;5082330;28;45149;-76
2023/08/16 04:56:01;;;;;;;;;6.67;5.33;;;;;;;;5082443;28;45253;-75
2023/08/16 04:58:27;;;;;;;;;4.00;4.00;;;;;;;;5082389;28;45345;-75
2023/08/16 05:00:52;;;;;;;;;6.00;6.00;;;;;;;;5063733;28;45719;-75
2023/08/16 05:03:17;;;;;;;;;5.67;3.67;;;;;;;;5082162;28;45228;-75
2023/08/16 05:05:42;;;;;;;;;6.00;6.00;;;;;;;;5063436;28;47015;-75
2023/08/16 05:08:07;;;;;;;;;6.00;4.00;;;;;;;;5081739;28;45476;-75
2023/08/16 05:10:33;;;;;;;;;6.33;5.33;;;;;;;;5082169;28;45302;-75
2023/08/16 05:12:58;;;;;;;;;5.33;5.00;;;;;;;;5082184;28;45349;-75
2023/08/16 05:15:23;;;;;;;;;4.67;4.00;;;;;;;;5081841;28;45348;-75
2023/08/16 05:17:48;;;;;;;;;5.00;5.00;;;;;;;;5081995;28;45439;-75
2023/08/16 05:20:14;;;;;;;;;5.00;5.00;;;;;;;;5063616;28;45399;-76
2023/08/16 05:22:39;;;;;;;;;5.00;5.00;;;;;;;;5082076;28;45297;-75
2023/08/16 05:25:04;;;;;;;;;4.33;4.33;;;;;;;;5082066;28;45284;-75
2023/08/16 05:27:29;;;;;;;;;6.00;6.00;;;;;;;;5063628;28;47264;-76
2023/08/16 05:29:55;;;;;;;;;7.00;6.33;;;;;;;;5095478;27;45346;-76
2023/08/16 05:32:20;;;;;;;;;5.67;5.67;;;;;;;;5102495;27;45575;-75
2023/08/16 05:34:45;;;;;;;;;3.33;3.33;;;;;;;;5102322;27;45449;-76
2023/08/16 05:37:10;;;;;;;;;7.00;7.00;;;;;;;;5102071;27;46132;-75
2023/08/16 05:39:36;;;;;;;;;4.67;4.67;;;;;;;;5083850;27;45666;-76
2023/08/16 05:42:01;;;;;;;;;5.00;5.00;;;;;;;;5083913;27;45414;-75
2023/08/16 05:44:26;;;;;;;;;5.33;5.33;;;;;;;;5102026;27;45295;-76
2023/08/16 05:46:51;;;;;;;;;6.33;5.33;;;;;;;;5102046;27;46257;-76
2023/08/16 05:49:16;;;;;;;;;6.67;6.00;;;;;;;;5102117;27;45429;-76
2023/08/16 05:51:42;;;;;;;;;4.00;4.00;;;;;;;;5083867;27;45412;-76
2023/08/16 05:54:07;;;;;;;;;6.00;6.00;;;;;;;;5083537;27;46113;-77
2023/08/16 05:56:32;;;;;;;;;7.67;7.33;;;;;;;;5078958;27;47426;-75
2023/08/16 05:58:57;;;;;;;;;6.00;5.33;;;;;;;;5061025;28;45621;-75
2023/08/16 06:01:22;;;;;;;;;6.00;6.00;;;;;;;;5077444;28;45363;-76
2023/08/16 06:03:47;;;;;;;;;60.25;50.25;;;;;;;;5081447;28;45272;-75
2023/08/16 06:06:13;;;;;;;;;7.00;4.00;;;;;;;;5081290;28;46329;-75
2023/08/16 06:08:38;;;;;;;;;5.67;5.67;;;;;;;;5078092;28;45533;-75
2023/08/16 06:11:04;;;;;;;;;6.00;6.00;;;;;;;;5080960;28;45339;-75
2023/08/16 06:13:30;;;;;;;;;8.00;6.33;;;;;;;;5042876;28;46152;-74
2023/08/16 06:15:55;;;;;;;;;7.00;7.00;;;;;;;;5061594;28;45808;-75
2023/08/16 06:18:20;;;;;;;;;8.00;8.00;;;;;;;;5061125;28;45360;-75
2023/08/16 06:20:45;;;;;;;;;8.33;7.67;;;;;;;;5062578;28;45366;-75
2023/08/16 06:23:11;;;;;;;;;7.67;7.67;;;;;;;;5061397;28;45625;-76
2023/08/16 06:25:36;;;;;;;;;8.00;7.00;;;;;;;;5074055;28;45377;-76
2023/08/16 06:28:01;;;;;;;;;9.67;8.33;;;;;;;;5077145;28;45308;-75
2023/08/16 06:30:26;;;;;;;;;9.33;9.33;;;;;;;;5071494;27;46093;-76
2023/08/16 06:32:52;;;;;;;;;8.67;8.00;;;;;;;;5079847;28;45648;-75
2023/08/16 06:35:17;;;;;;;;;8.67;8.67;;;;;;;;5080531;28;46216;-74
2023/08/16 06:37:44;;;;;;;;;8.33;6.67;;;;;;;;5082284;28;45401;-75
2023/08/16 06:40:10;;;;;;;;;7.00;7.00;;;;;;;;5079384;28;45382;-75
2023/08/16 06:42:35;;;;;;;;;8.00;8.00;;;;;;;;5080282;28;45373;-76
2023/08/16 06:45:01;;;;;;;;;9.00;9.00;;;;;;;;5061637;28;48052;-74
2023/08/16 06:47:26;;;;;;;;;9.00;9.00;;;;;;;;5080465;28;45444;-75
2023/08/16 06:49:51;;;;;;;;;7.00;7.00;;;;;;;;5062080;28;45398;-75
2023/08/16 06:52:16;;;;;;;;;10.67;9.33;;;;;;;;5080470;28;45384;-75
2023/08/16 06:54:42;;;;;;;;;8.00;8.00;;;;;;;;5079585;28;45427;-74
2023/08/16 06:57:08;;;;;;;;;14.00;12.00;;;;;;;;5079799;28;45424;-74
2023/08/16 06:59:33;;;;;;;;;11.67;11.67;;;;;;;;5078312;28;45334;-76
2023/08/16 07:01:59;;;;;;;;;11.67;11.00;;;;;;;;5079824;28;45512;-76
2023/08/16 07:04:24;;;;;;;;;9.33;9.33;;;;;;;;5080921;28;45376;-74
2023/08/16 07:06:49;;;;;;;;;12.33;10.67;;;;;;;;5082417;28;45358;-75
2023/08/16 07:09:14;;;;;;;;;9.33;8.33;;;;;;;;5078821;28;47074;-75
2023/08/16 07:11:39;;;;;;;;;11.33;11.00;;;;;;;;5077255;28;45350;-75
2023/08/16 07:14:05;;;;;;;;;9.00;9.00;;;;;;;;5063268;28;47464;-74
2023/08/16 07:16:31;;;;;;;;;10.00;10.00;;;;;;;;5078429;28;45283;-74
2023/08/16 07:18:56;;;;;;;;;13.00;13.00;;;;;;;;5062548;28;45584;-75
2023/08/16 07:21:21;;;;;;;;;11.67;11.00;;;;;;;;5077866;28;45305;-75
2023/08/16 07:23:46;;;;;;;;;12.67;10.67;;;;;;;;5076830;28;48697;-74
2023/08/16 07:26:11;;;;;;;;;11.00;10.33;;;;;;;;5080026;28;45505;-76
2023/08/16 07:28:37;;;;;;;;;11.00;11.00;;;;;;;;5080098;27;45472;-75
2023/08/16 07:31:02;;;;;;;;;11.00;9.00;;;;;;;;5079218;28;45429;-75
2023/08/16 07:33:30;;;;;;;;;12.33;11.67;;;;;;;;5079943;28;46207;-74
2023/08/16 07:35:58;;;;;;;;;10.67;10.67;;;;;;;;5077916;28;45898;-75
2023/08/16 07:38:23;;;;;;;;;11.67;11.67;;;;;;;;5067016;28;45373;-75
2023/08/16 07:40:49;;;;;;;;;12.67;12.33;;;;;;;;5080043;28;45487;-74
2023/08/16 07:43:14;;;;;;;;;10.67;9.67;;;;;;;;5071417;28;45468;-74
2023/08/16 07:45:40;;;;;;;;;9.00;9.00;;;;;;;;5082006;28;45237;-74
2023/08/16 07:48:05;;;;;;;;;9.00;9.00;;;;;;;;5084185;28;45208;-76
2023/08/16 07:50:30;;;;;;;;;12.00;11.67;;;;;;;;5068731;28;45540;-74
2023/08/16 07:52:56;;;;;;;;;13.00;11.67;;;;;;;;5079692;27;46678;-76
2023/08/16 07:55:22;;;;;;;;;8.00;8.00;;;;;;;;5078757;28;45275;-75
2023/08/16 07:57:47;;;;;;;;;11.67;9.67;;;;;;;;5068864;27;45928;-75
2023/08/16 08:00:12;;;;;;;;;10.33;9.67;;;;;;;;5095569;27;45601;-78
2023/08/16 08:02:41;;;;;;;;;10.67;10.67;;;;;;;;5087104;27;45394;-74
2023/08/16 08:05:06;;;;;;;;;14.00;14.00;;;;;;;;5099529;27;45340;-74
2023/08/16 08:07:31;;;;;;;;;8.67;8.67;;;;;;;;5099832;27;45345;-75
2023/08/16 08:09:59;;;;;;;;;10.33;9.67;;;;;;;;5099560;27;45605;-76
2023/08/16 08:12:24;;;;;;;;;13.00;13.00;;;;;;;;5076256;28;47839;-77
2023/08/16 08:14:50;;;;;;;;;12.00;10.33;;;;;;;;5077089;27;45403;-77
2023/08/16 08:17:15;;;;;;;;;10.00;10.00;;;;;;;;5079158;28;45225;-77
2023/08/16 08:19:40;;;;;;;;;12.67;11.00;;;;;;;;5066892;28;45993;-77
2023/08/16 08:22:05;;;;;;;;;34.33;28.00;;;;;;;;5078766;28;45444;-77
2023/08/16 08:24:31;;;;;;;;;10.00;10.00;;;;;;;;5081585;28;45339;-77
2023/08/16 08:26:57;;;;;;;;;5.00;5.00;;;;;;;;5063876;28;45270;-76
2023/08/16 08:29:25;;;;;;;;;11.67;11.33;;;;;;;;5091107;27;45414;-76
2023/08/16 08:31:50;;;;;;;;;16.67;14.33;;;;;;;;5086295;27;46052;-77
2023/08/16 08:34:16;;;;;;;;;11.00;9.67;;;;;;;;5084025;28;45371;-77
2023/08/16 08:36:41;;;;;;;;;15.33;14.67;;;;;;;;5063349;28;45368;-77
2023/08/16 08:39:06;;;;;;;;;12.67;11.33;;;;;;;;5064950;28;45316;-77
2023/08/16 08:41:32;;;;;;;;;11.33;9.33;;;;;;;;5073743;28;45793;-78
2023/08/16 08:43:58;;;;;;;;;19.33;18.67;;;;;;;;5081962;28;45674;-78
2023/08/16 08:46:24;;;;;;;;;14.00;12.33;;;;;;;;5068237;27;45852;-76
2023/08/16 08:48:49;;;;;;;;;9.67;9.67;;;;;;;;5081214;27;45648;-77
2023/08/16 08:51:14;;;;;;;;;8.33;8.33;;;;;;;;5095829;27;46480;-77
2023/08/16 08:53:40;;;;;;;;;9.00;7.33;;;;;;;;5063598;28;45675;-78
2023/08/16 08:56:09;;;;;;;;;8.33;7.00;;;;;;;;5096408;27;45226;-78
2023/08/16 08:58:35;;;;;;;;;7.67;7.67;;;;;;;;5069364;28;46335;-78
2023/08/16 09:01:01;;;;;;;;;9.33;8.67;;;;;;;;5063835;28;47434;-78
2023/08/16 09:03:28;;;;;;;;;6.00;6.00;;;;;;;;5082378;28;45238;-78
2023/08/16 09:05:53;;;;;;;;;12.00;8.33;;;;;;;;5064127;28;45370;-78
2023/08/16 09:08:20;;;;;;;;;8.67;7.33;;;;;;;;5065931;28;47061;-78
2023/08/16 09:10:46;;;;;;;;;9.00;8.00;;;;;;;;5083352;28;45218;-76
2023/08/16 09:13:11;;;;;;;;;9.33;8.00;;;;;;;;5083103;28;45323;-76
2023/08/16 09:15:37;;;;;;;;;7.33;7.33;;;;;;;;5063852;28;45167;-76
2023/08/16 09:18:08;;;;;;;;;8.00;7.00;;;;;;;;5082247;28;45339;-75
2023/08/16 09:20:33;;;;;;;;;33.67;28.33;;;;;;;;5063690;28;47247;-77
2023/08/16 09:22:59;;;;;;;;;9.00;8.00;;;;;;;;5081889;27;45319;-76
2023/08/16 09:25:24;;;;;;;;;43.00;33.33;;;;;;;;5078019;27;46303;-77
2023/08/16 09:27:50;;;;;;;;;7.00;6.00;;;;;;;;5102676;27;45244;-77
2023/08/16 09:30:16;;;;;;;;;10.33;10.33;;;;;;;;5084557;27;45475;-77
2023/08/16 09:32:41;;;;;;;;;6.67;6.67;;;;;;;;5087267;27;45445;-76
2023/08/16 09:35:12;;;;;;;;;7.00;7.00;;;;;;;;5075843;27;45470;-76
2023/08/16 09:37:38;;;;;;;;;6.33;6.00;;;;;;;;5090606;27;45460;-76
2023/08/16 09:40:04;;;;;;;;;6.00;6.00;;;;;;;;5081898;27;48218;-76
2023/08/16 09:42:30;;;;;;;;;9.67;8.67;;;;;;;;5081924;28;45437;-76
2023/08/16 09:44:55;;;;;;;;;7.67;6.67;;;;;;;;5081213;28;45459;-76
2023/08/16 09:47:20;;;;;;;;;5.25;5.25;;;;;;;;5063420;28;45570;-77
2023/08/16 09:49:46;;;;;;;;;7.00;7.00;;;;;;;;5081783;28;45892;-77
2023/08/16 09:52:11;;;;;;;;;7.33;7.00;;;;;;;;5064191;28;45277;-78
2023/08/16 09:54:37;;;;;;;;;7.00;6.00;;;;;;;;5083230;28;45462;-77
2023/08/16 09:57:03;;;;;;;;;6.33;6.33;;;;;;;;5067083;28;46119;-76
2023/08/16 09:59:30;;;;;;;;;5.25;5.25;;;;;;;;5081358;28;46248;-76
2023/08/16 10:01:56;;;;;;;;;8.00;8.00;;;;;;;;5081981;28;45682;-75
2023/08/16 10:04:22;;;;;;;;;7.33;6.67;;;;;;;;5085775;28;45412;-78
2023/08/16 10:06:47;;;;;;;;;18.00;16.33;;;;;;;;5083758;28;46603;-75
2023/08/16 10:09:12;;;;;;;;;11.00;11.00;;;;;;;;5084272;28;45296;-77
2023/08/16 10:11:39;;;;;;;;;6.33;6.33;;;;;;;;5085896;28;45487;-77
2023/08/16 10:14:06;;;;;;;;;8.00;8.00;;;;;;;;5084509;28;45149;-78
2023/08/16 10:16:32;;;;;;;;;8.67;8.67;;;;;;;;5083263;28;46113;-76
2023/08/16 10:18:59;;;;;;;;;6.00;6.00;;;;;;;;5087637;28;46406;-76
2023/08/16 10:21:24;;;;;;;;;5.33;5.33;;;;;;;;5084099;28;45309;-77
2023/08/16 10:23:52;;;;;;;;;7.50;7.00;;;;;;;;5083794;28;45311;-78
2023/08/16 10:26:19;;;;;;;;;6.50;6.25;;;;;;;;5082311;28;45355;-76
2023/08/16 10:28:47;;;;;;;;;17.33;14.33;;;;;;;;5088879;27;45362;-77
2023/08/16 10:31:14;;;;;;;;;6.50;6.50;;;;;;;;5083987;27;46050;-77
2023/08/16 10:33:44;;;;;;;;;17.00;16.67;;;;;;;;5101873;27;45759;-78
2023/08/16 10:36:09;;;;;;;;;6.33;6.33;;;;;;;;5102220;27;45330;-79
2023/08/16 10:38:38;;;;;;;;;6.33;6.00;;;;;;;;5101226;27;45325;-80
2023/08/16 10:41:13;;;;;;;;;5.00;5.00;;;;;;;;5102279;27;45293;-77
2023/08/16 10:43:45;;;;;;;;;6.67;6.67;;;;;;;;5085225;27;45294;-79
2023/08/16 10:46:10;;;;;;;;;55.00;43.67;;;;;;;;5103979;27;45348;-77
2023/08/16 10:48:36;;;;;;;;;21.33;19.67;;;;;;;;5103021;27;45398;-76
2023/08/16 10:51:06;;;;;;;;;37.67;32.00;;;;;;;;5103505;27;45323;-77
2023/08/16 10:53:32;;;;;;;;;40.33;33.67;;;;;;;;5101455;27;45691;-77
2023/08/16 10:55:57;;;;;;;;;18.67;16.00;;;;;;;;5074402;28;45424;-77
2023/08/16 10:58:23;;;;;;;;;50.67;39.33;;;;;;;;5077910;28;45303;-77
2023/08/16 11:00:58;;;;;;;;;11.67;11.67;;;;;;;;5080174;28;45322;-78
2023/08/16 11:03:30;;;;;;;;;6.75;5.75;;;;;;;;5042318;28;45367;-77
2023/08/16 11:05:56;;;;;;;;;3.50;3.50;;;;;;;;5041411;28;47706;-77
2023/08/16 11:08:22;;;;;;;;;3.25;3.25;;;;;;;;5065825;28;46223;-78
2023/08/16 11:10:47;;;;;;;;;5.50;5.50;;;;;;;;5071030;28;45283;-77
2023/08/16 11:13:12;;;;;;;;;3.50;3.50;;;;;;;;5081250;28;45274;-75
2023/08/16 11:15:40;;;;;;;;;3.50;3.50;;;;;;;;5079164;27;45449;-77
2023/08/16 11:18:05;;;;;;;;;6.50;5.00;;;;;;;;5073737;27;46314;-80
2023/08/16 11:20:30;;;;;;;;;4.75;4.75;;;;;;;;5064374;28;45379;-79
2023/08/16 11:22:58;;;;;;;;;2.25;2.25;;;;;;;;5071019;27;45487;-78
2023/08/16 11:25:23;;;;;;;;;3.75;3.50;;;;;;;;5077114;27;45362;-77
2023/08/16 11:27:50;;;;;;;;;3.00;3.00;;;;;;;;5079513;28;45478;-77
2023/08/16 11:30:15;;;;;;;;;2.75;2.75;;;;;;;;5082427;27;45219;-77
2023/08/16 11:32:41;;;;;;;;;1.00;1.00;;;;;;;;5079088;28;45488;-79
2023/08/16 11:35:06;;;;;;;;;2.00;2.00;;;;;;;;5079971;27;45337;-79
2023/08/16 11:37:32;;;;;;;;;0.50;0.50;;;;;;;;5078385;28;45557;-75
2023/08/16 11:39:58;;;;;;;;;1.00;1.00;;;;;;;;5076031;27;45379;-77
2023/08/16 11:42:23;;;;;;;;;1.75;1.75;;;;;;;;5061227;28;45434;-76
2023/08/16 11:44:48;;;;;;;;;1.25;1.25;;;;;;;;5066484;28;45602;-77
2023/08/16 11:47:13;;;;;;;;;2.00;2.00;;;;;;;;5079460;28;45991;-78
2023/08/16 11:49:38;;;;;;;;;1.00;1.00;;;;;;;;5079409;28;45351;-77
2023/08/16 11:52:04;;;;;;;;;26.33;25.00;;;;;;;;5079104;28;45386;-77
2023/08/16 11:54:29;;;;;;;;;1.00;1.00;;;;;;;;5080466;28;45390;-77
2023/08/16 11:56:54;;;;;;;;;1.00;1.00;;;;;;;;5094096;27;46262;-78
2023/08/16 11:59:26;;;;;;;;;1.25;1.25;;;;;;;;5078500;28;45885;-79
2023/08/16 12:01:54;;;;;;;;;1.50;1.50;;;;;;;;5083356;27;45388;-78
2023/08/16 12:04:20;;;;;;;;;1.25;1.25;;;;;;;;5064238;28;47119;-79
2023/08/16 12:06:46;;;;;;;;;1.50;1.50;;;;;;;;5063583;28;46849;-79
2023/08/16 12:09:14;;;;;;;;;2.25;2.25;;;;;;;;5082938;27;45456;-80
2023/08/16 12:11:39;;;;;;;;;2.50;2.50;;;;;;;;5065910;28;45956;-80
2023/08/16 12:14:05;;;;;;;;;1.00;1.00;;;;;;;;5075738;27;45426;-78
2023/08/16 12:16:33;;;;;;;;;3.25;3.25;;;;;;;;5085077;27;45396;-79
2023/08/16 12:18:59;;;;;;;;;3.00;3.00;;;;;;;;5062989;28;46044;-77
2023/08/16 12:21:24;;;;;;;;;2.75;2.00;;;;;;;;5081213;27;45550;-77
2023/08/16 12:23:50;;;;;;;;;1.25;1.25;;;;;;;;5081604;28;45450;-79
2023/08/16 12:26:15;;;;;;;;;2.00;2.00;;;;;;;;5078627;27;46371;-77
2023/08/16 12:28:41;;;;;;;;;7.67;7.33;;;;;;;;5077490;27;45406;-77
2023/08/16 12:31:06;;;;;;;;;2.67;2.67;;;;;;;;5073691;27;45389;-77
2023/08/16 12:33:31;;;;;;;;;1.00;1.00;;;;;;;;5065111;28;45331;-76
2023/08/16 12:35:58;;;;;;;;;3.00;3.00;;;;;;;;5074792;27;46139;-77
2023/08/16 12:38:23;;;;;;;;;2.00;2.00;;;;;;;;5082256;28;45335;-78
2023/08/16 12:40:49;;;;;;;;;3.00;1.75;;;;;;;;5082317;27;45426;-77
2023/08/16 12:43:14;;;;;;;;;2.50;2.50;;;;;;;;5083345;28;45336;-77
2023/08/16 12:45:39;;;;;;;;;3.00;3.00;;;;;;;;5082255;27;45591;-80
2023/08/16 12:48:05;;;;;;;;;2.75;2.75;;;;;;;;5072509;28;45338;-78
2023/08/16 12:50:30;;;;;;;;;4.00;4.00;;;;;;;;5077860;28;45285;-78
2023/08/16 12:52:55;;;;;;;;;2.75;2.75;;;;;;;;5068471;28;47324;-78
2023/08/16 12:55:21;;;;;;;;;3.75;3.00;;;;;;;;5083444;27;45694;-80
2023/08/16 12:57:46;;;;;;;;;2.50;2.50;;;;;;;;5080918;28;45324;-78
2023/08/16 13:00:12;;;;;;;;;2.75;2.75;;;;;;;;5081861;27;45294;-78
2023/08/16 13:02:38;;;;;;;;;2.50;2.50;;;;;;;;5081827;28;45450;-79
2023/08/16 13:05:04;;;;;;;;;3.00;3.00;;;;;;;;5082890;28;46010;-80
2023/08/16 13:07:29;;;;;;;;;5.00;5.00;;;;;;;;5082716;27;45287;-79
2023/08/16 13:09:54;;;;;;;;;3.00;3.00;;;;;;;;5063544;28;45501;-79
2023/08/16 13:12:19;;;;;;;;;2.75;2.75;;;;;;;;5081609;27;45355;-81
2023/08/16 13:14:45;;;;;;;;;2.50;2.50;;;;;;;;5087879;28;45317;-80
2023/08/16 13:17:11;;;;;;;;;3.75;3.50;;;;;;;;5085434;27;45357;-81
2023/08/16 13:19:36;;;;;;;;;4.75;4.25;;;;;;;;5085425;28;45290;-81
2023/08/16 13:22:02;;;;;;;;;3.00;3.00;;;;;;;;5082253;27;45536;-79
2023/08/16 13:24:27;;;;;;;;;3.75;2.75;;;;;;;;5084888;28;46515;-78
2023/08/16 13:26:52;;;;;;;;;2.50;2.50;;;;;;;;5086983;27;45228;-78
2023/08/16 13:29:17;;;;;;;;;2.50;2.50;;;;;;;;5088208;27;45540;-79
2023/08/16 13:31:42;;;;;;;;;2.25;2.25;;;;;;;;5104430;27;45542;-79
2023/08/16 13:34:07;;;;;;;;;3.00;3.00;;;;;;;;5086966;27;45438;-79
2023/08/16 13:36:34;;;;;;;;;2.00;2.00;;;;;;;;5074650;28;45457;-80
2023/08/16 13:39:01;;;;;;;;;3.00;3.00;;;;;;;;5072465;28;45459;-80
2023/08/16 13:41:26;;;;;;;;;4.00;4.00;;;;;;;;5084106;27;45539;-79
2023/08/16 13:43:51;;;;;;;;;4.75;4.00;;;;;;;;5082148;28;46048;-79
2023/08/16 13:46:16;;;;;;;;;4.75;4.75;;;;;;;;5083446;27;45403;-80
2023/08/16 13:48:42;;;;;;;;;3.50;3.50;;;;;;;;5080783;28;45311;-80
2023/08/16 13:51:07;;;;;;;;;1.75;1.75;;;;;;;;5081918;27;45307;-79
2023/08/16 13:53:33;;;;;;;;;4.25;4.25;;;;;;;;5081864;28;45960;-80
2023/08/16 13:56:00;;;;;;;;;3.50;3.50;;;;;;;;5063513;28;45634;-80
2023/08/16 13:58:26;;;;;;;;;2.75;2.75;;;;;;;;5082753;28;45431;-80
2023/08/16 14:00:51;;;;;;;;;4.50;3.75;;;;;;;;5082720;28;45216;-80
2023/08/16 14:03:18;;;;;;;;;5.00;5.00;;;;;;;;5081282;28;45302;-79
2023/08/16 14:05:43;;;;;;;;;4.00;3.75;;;;;;;;5063378;28;45843;-82
2023/08/16 14:08:09;;;;;;;;;4.00;4.00;;;;;;;;5062961;28;45351;-82
2023/08/16 14:10:35;;;;;;;;;4.50;3.25;;;;;;;;5063292;28;45427;-78
2023/08/16 14:13:00;;;;;;;;;3.50;3.50;;;;;;;;5081012;28;46022;-78
2023/08/16 14:15:25;;;;;;;;;3.33;3.33;;;;;;;;5081846;28;45283;-78
2023/08/16 14:17:50;;;;;;;;;3.75;3.75;;;;;;;;5063721;28;45347;-78
2023/08/16 14:20:15;;;;;;;;;4.00;4.00;;;;;;;;5080854;28;45478;-77
2023/08/16 14:22:41;;;;;;;;;3.00;3.00;;;;;;;;5079912;28;46021;-78
2023/08/16 14:25:06;;;;;;;;;4.00;4.00;;;;;;;;5081197;28;45411;-78
2023/08/16 14:27:31;;;;;;;;;4.00;3.25;;;;;;;;5062984;28;45358;-78
2023/08/16 14:29:56;;;;;;;;;3.00;2.75;;;;;;;;5083265;27;45507;-77